createdAt,value
2019-02-12T00:02:15.790Z,4.40
2019-02-12T00:04:57.044Z,4.40
2019-02-12T00:07:41.660Z,4.40
2019-02-12T00:10:07.944Z,4.40
2019-02-12T00:12:34.100Z,4.30
2019-02-12T00:15:00.392Z,4.40
2019-02-12T00:17:26.643Z,4.40
2019-02-12T00:19:52.978Z,4.40
2019-02-12T00:22:19.189Z,4.40
2019-02-12T00:24:45.429Z,4.30
2019-02-12T00:27:11.596Z,4.40
2019-02-12T00:29:37.820Z,4.40
2019-02-12T00:32:03.986Z,4.40
2019-02-12T00:34:30.143Z,4.40
2019-02-12T00:36:56.308Z,4.40
2019-02-12T00:39:22.454Z,4.50
2019-02-12T00:42:07.108Z,4.40
2019-02-12T00:44:33.297Z,4.40
2019-02-12T00:46:59.485Z,4.40
2019-02-12T00:49:25.642Z,4.40
2019-02-12T00:51:51.880Z,4.40
2019-02-12T00:54:18.117Z,4.40
2019-02-12T00:56:44.266Z,4.40
2019-02-12T00:59:10.408Z,4.50
2019-02-12T01:01:36.563Z,4.50
2019-02-12T01:04:02.754Z,4.50
2019-02-12T01:06:29.018Z,4.60
2019-02-12T01:08:55.191Z,4.60
2019-02-12T01:11:24.177Z,4.60
2019-02-12T01:13:50.342Z,4.60
2019-02-12T01:16:16.476Z,4.60
2019-02-12T01:18:42.651Z,4.60
2019-02-12T01:21:08.916Z,4.50
2019-02-12T01:23:35.186Z,4.50
2019-02-12T01:26:01.448Z,4.50
2019-02-12T01:28:27.689Z,4.50
2019-02-12T01:30:53.815Z,4.50
2019-02-12T01:33:19.993Z,4.50
2019-02-12T01:35:46.139Z,4.40
2019-02-12T01:38:15.186Z,4.40
2019-02-12T01:40:41.329Z,4.40
2019-02-12T01:43:07.484Z,4.40
2019-02-12T01:45:33.635Z,4.30
2019-02-12T01:47:59.795Z,4.30
2019-02-12T01:50:25.967Z,4.30
2019-02-12T01:52:52.184Z,4.20
2019-02-12T01:55:18.426Z,4.30
2019-02-12T01:57:44.634Z,4.20
2019-02-12T02:00:12.402Z,4.30
2019-02-12T02:02:38.616Z,4.30
2019-02-12T02:05:06.988Z,4.30
2019-02-12T02:07:33.187Z,4.20
2019-02-12T02:09:59.340Z,4.20
2019-02-12T02:12:28.128Z,4.20
2019-02-12T02:14:54.288Z,4.10
2019-02-12T02:17:20.470Z,4.00
2019-02-12T02:19:46.724Z,4.00
2019-02-12T02:22:13.005Z,3.90
2019-02-12T02:24:39.152Z,3.90
2019-02-12T02:27:05.309Z,3.80
2019-02-12T02:29:34.354Z,3.80
2019-02-12T02:32:00.577Z,3.90
2019-02-12T02:34:26.815Z,3.90
2019-02-12T02:36:53.013Z,3.90
2019-02-12T02:39:19.176Z,4.00
2019-02-12T02:41:45.341Z,4.00
2019-02-12T02:44:11.500Z,4.00
2019-02-12T02:46:37.653Z,4.00
2019-02-12T02:49:03.827Z,4.00
2019-02-12T02:51:29.979Z,4.00
2019-02-12T02:53:56.171Z,4.00
2019-02-12T02:56:22.469Z,4.10
2019-02-12T02:58:48.660Z,4.00
2019-02-12T03:01:14.880Z,4.10
2019-02-12T03:03:41.052Z,4.10
2019-02-12T03:06:10.343Z,4.10
2019-02-12T03:08:36.590Z,4.00
2019-02-12T03:11:02.789Z,4.00
2019-02-12T03:13:29.021Z,4.00
2019-02-12T03:15:55.231Z,4.00
2019-02-12T03:18:21.468Z,4.00
2019-02-12T03:20:47.625Z,4.00
2019-02-12T03:23:22.914Z,3.90
2019-02-12T03:25:51.631Z,3.90
2019-02-12T03:28:17.788Z,3.80
2019-02-12T03:30:43.961Z,3.70
2019-02-12T03:33:10.153Z,3.70
2019-02-12T03:35:36.448Z,3.70
2019-02-12T03:38:02.624Z,3.70
2019-02-12T03:40:28.904Z,3.60
2019-02-12T03:43:07.217Z,3.60
2019-02-12T03:45:35.940Z,3.60
2019-02-12T03:48:02.124Z,3.50
2019-02-12T03:50:28.304Z,3.50
2019-02-12T03:52:54.555Z,3.50
2019-02-12T03:55:20.837Z,3.50
2019-02-12T03:57:47.004Z,3.40
2019-02-12T04:00:14.477Z,3.40
2019-02-12T04:03:01.392Z,3.40
2019-02-12T04:05:27.769Z,3.40
2019-02-12T04:07:53.923Z,3.30
2019-02-12T04:10:20.125Z,3.30
2019-02-12T04:12:46.364Z,3.30
2019-02-12T04:15:15.416Z,3.30
2019-02-12T04:17:41.608Z,3.30
2019-02-12T04:20:07.763Z,3.30
2019-02-12T04:22:34.024Z,3.30
2019-02-12T04:25:00.249Z,3.20
2019-02-12T04:27:26.508Z,3.20
2019-02-12T04:29:52.740Z,3.20
2019-02-12T04:32:18.889Z,3.20
2019-02-12T04:34:45.088Z,3.20
2019-02-12T04:37:11.264Z,3.20
2019-02-12T04:39:37.522Z,3.20
2019-02-12T04:42:06.339Z,3.20
2019-02-12T04:44:32.585Z,3.20
2019-02-12T04:46:58.775Z,3.10
2019-02-12T04:49:24.969Z,3.10
2019-02-12T04:51:51.238Z,3.10
2019-02-12T04:54:30.702Z,3.10
2019-02-12T04:56:56.865Z,3.10
2019-02-12T04:59:23.048Z,3.10
2019-02-12T05:01:49.234Z,3.00
2019-02-12T05:04:15.383Z,3.00
2019-02-12T05:06:41.593Z,3.00
2019-02-12T05:09:13.007Z,3.00
2019-02-12T05:11:42.052Z,3.00
2019-02-12T05:14:10.783Z,3.00
2019-02-12T05:16:39.514Z,3.00
2019-02-12T05:19:05.711Z,3.00
2019-02-12T05:21:40.974Z,3.00
2019-02-12T05:24:07.117Z,2.90
2019-02-12T05:26:48.586Z,2.90
2019-02-12T05:29:14.841Z,2.90
2019-02-12T05:31:41.076Z,2.90
2019-02-12T05:34:07.230Z,2.90
2019-02-12T05:36:33.406Z,2.90
2019-02-12T05:38:59.547Z,2.90
2019-02-12T05:41:25.873Z,2.80
2019-02-12T05:43:52.114Z,2.80
2019-02-12T05:46:18.337Z,2.80
2019-02-12T05:48:44.490Z,2.80
2019-02-12T05:51:13.268Z,2.80
2019-02-12T05:53:39.421Z,2.80
2019-02-12T05:56:05.614Z,2.80
2019-02-12T05:58:31.792Z,2.80
2019-02-12T06:00:58.019Z,2.80
2019-02-12T06:03:24.204Z,2.80
2019-02-12T06:05:50.378Z,2.80
2019-02-12T06:08:16.542Z,2.80
2019-02-12T06:10:42.721Z,2.80
2019-02-12T06:13:08.877Z,2.80
2019-02-12T06:15:35.088Z,2.80
2019-02-12T06:18:01.276Z,2.80
2019-02-12T06:20:27.460Z,2.80
2019-02-12T06:23:03.098Z,2.80
2019-02-12T06:25:24.398Z,2.80
2019-02-12T06:27:50.634Z,2.80
2019-02-12T06:30:35.341Z,2.80
2019-02-12T06:33:07.247Z,2.80
2019-02-12T06:35:29.593Z,2.80
2019-02-12T06:38:07.839Z,2.80
2019-02-12T06:40:36.585Z,2.80
2019-02-12T06:43:02.882Z,2.80
2019-02-12T06:45:29.106Z,2.80
2019-02-12T06:47:55.272Z,2.80
2019-02-12T06:50:21.447Z,2.80
2019-02-12T06:52:47.604Z,2.80
2019-02-12T06:55:16.410Z,2.90
2019-02-12T06:57:42.730Z,2.90
2019-02-12T07:00:13.432Z,2.90
2019-02-12T07:03:12.436Z,2.90
2019-02-12T07:05:48.068Z,2.80
2019-02-12T07:08:55.676Z,2.80
2019-02-12T07:11:34.326Z,2.80
2019-02-12T07:14:26.802Z,2.80
2019-02-12T07:17:02.751Z,2.80
2019-02-12T07:19:50.736Z,2.80
2019-02-12T07:22:44.717Z,2.90
2019-02-12T07:25:19.843Z,2.90
2019-02-12T07:28:07.088Z,3.00
2019-02-12T07:30:48.728Z,2.90
2019-02-12T07:33:18.763Z,3.00
2019-02-12T07:36:03.486Z,3.00
2019-02-12T07:38:54.459Z,3.00
2019-02-12T07:41:46.868Z,3.10
2019-02-12T07:44:25.625Z,3.10
2019-02-12T07:46:58.473Z,3.20
2019-02-12T07:49:28.656Z,3.20
2019-02-12T07:51:58.759Z,3.30
2019-02-12T07:54:31.725Z,3.30
2019-02-12T07:57:41.040Z,3.40
2019-02-12T08:00:37.188Z,3.40
2019-02-12T08:03:36.837Z,3.40
2019-02-12T08:06:12.308Z,3.50
2019-02-12T08:08:54.471Z,3.50
2019-02-12T08:11:39.500Z,3.50
2019-02-12T08:14:17.920Z,3.60
2019-02-12T08:17:02.829Z,3.70
2019-02-12T08:19:44.793Z,3.90
2019-02-12T08:22:30.082Z,3.90
2019-02-12T08:25:22.072Z,4.00
2019-02-12T08:27:58.194Z,4.00
2019-02-12T08:30:28.298Z,4.00
2019-02-12T08:33:14.771Z,4.10
2019-02-12T08:35:59.258Z,4.10
2019-02-12T08:38:38.577Z,4.10
2019-02-12T08:41:17.776Z,4.20
2019-02-12T08:43:57.191Z,4.20
2019-02-12T08:46:46.755Z,4.20
2019-02-12T08:49:48.892Z,4.20
2019-02-12T08:52:47.400Z,4.20
2019-02-12T08:55:38.625Z,4.30
2019-02-12T08:58:26.305Z,4.30
2019-02-12T09:01:02.393Z,4.40
2019-02-12T09:03:44.909Z,4.40
2019-02-12T09:06:30.286Z,4.50
2019-02-12T09:09:35.825Z,4.60
2019-02-12T09:12:20.592Z,4.60
2019-02-12T09:15:02.396Z,4.80
2019-02-12T09:18:00.243Z,4.90
2019-02-12T09:20:30.338Z,5.00
2019-02-12T09:23:03.117Z,5.00
2019-02-12T09:25:35.669Z,5.10
2019-02-12T09:28:23.672Z,5.10
2019-02-12T09:31:13.064Z,5.10
2019-02-12T09:33:59.961Z,5.20
2019-02-12T09:36:41.485Z,5.20
2019-02-12T09:39:11.464Z,5.20
2019-02-12T09:41:56.375Z,5.20
2019-02-12T09:44:41.361Z,5.20
2019-02-12T09:47:23.416Z,5.40
2019-02-12T09:50:13.920Z,5.30
2019-02-12T09:53:02.086Z,5.40
2019-02-12T09:55:44.055Z,5.40
2019-02-12T09:58:14.204Z,5.50
2019-02-12T10:00:56.191Z,5.50
2019-02-12T10:03:59.848Z,5.50
2019-02-12T10:06:38.255Z,5.60
2019-02-12T10:09:17.015Z,5.60
2019-02-12T10:11:56.367Z,5.60
2019-02-12T10:14:43.540Z,5.70
2019-02-12T10:17:24.648Z,5.90
2019-02-12T10:19:57.947Z,6.00
2019-02-12T10:22:47.632Z,6.10
2019-02-12T10:25:29.185Z,6.10
2019-02-12T10:28:17.506Z,6.20
2019-02-12T10:30:59.218Z,6.20
2019-02-12T10:33:25.458Z,6.40
2019-02-12T10:35:51.896Z,6.50
2019-02-12T10:38:20.833Z,6.50
2019-02-12T10:40:47.019Z,6.40
2019-02-12T10:43:13.197Z,6.50
2019-02-12T10:45:39.376Z,6.50
2019-02-12T10:48:05.568Z,6.70
2019-02-12T10:50:31.923Z,6.90
2019-02-12T10:52:58.156Z,7.00
2019-02-12T10:55:24.426Z,7.20
2019-02-12T10:57:53.117Z,7.20
2019-02-12T11:00:19.325Z,7.20
2019-02-12T11:02:45.661Z,7.30
2019-02-12T11:05:12.060Z,7.40
2019-02-12T11:07:40.924Z,7.40
2019-02-12T11:10:08.308Z,7.50
2019-02-12T11:12:49.657Z,7.50
2019-02-12T11:15:15.859Z,7.60
2019-02-12T11:17:42.143Z,7.70
2019-02-12T11:20:08.813Z,7.70
2019-02-12T11:22:37.851Z,7.70
2019-02-12T11:25:07.925Z,7.60
2019-02-12T11:27:34.169Z,7.60
2019-02-12T11:30:00.342Z,7.70
2019-02-12T11:32:26.792Z,7.80
2019-02-12T11:34:52.956Z,8.00
2019-02-12T11:37:19.116Z,8.10
2019-02-12T11:39:47.032Z,8.10
2019-02-12T11:42:13.340Z,8.00
2019-02-12T11:44:39.663Z,8.00
2019-02-12T11:47:05.914Z,7.90
2019-02-12T11:49:32.305Z,8.00
2019-02-12T11:51:59.788Z,8.00
2019-02-12T11:54:26.120Z,8.00
2019-02-12T11:56:52.312Z,8.10
2019-02-12T11:59:18.492Z,8.10
2019-02-12T12:01:44.676Z,8.20
2019-02-12T12:04:10.833Z,8.40
2019-02-12T12:06:37.020Z,8.70
2019-02-12T12:09:04.497Z,8.80
2019-02-12T12:11:30.695Z,9.00
2019-02-12T12:13:56.869Z,9.10
2019-02-12T12:16:23.045Z,9.30
2019-02-12T12:18:49.320Z,9.30
2019-02-12T12:21:18.571Z,9.20
2019-02-12T12:23:44.755Z,9.30
2019-02-12T12:26:10.929Z,9.40
2019-02-12T12:28:37.086Z,9.60
2019-02-12T12:31:03.431Z,9.60
2019-02-12T12:33:29.712Z,9.50
2019-02-12T12:35:55.968Z,9.30
2019-02-12T12:38:24.664Z,9.20
2019-02-12T12:40:50.856Z,9.20
2019-02-12T12:43:17.024Z,9.10
2019-02-12T12:45:43.352Z,9.10
2019-02-12T12:48:09.635Z,9.00
2019-02-12T12:50:38.776Z,9.20
2019-02-12T12:53:04.936Z,9.30
2019-02-12T12:55:31.229Z,9.30
2019-02-12T12:58:00.250Z,9.30
2019-02-12T13:00:26.516Z,9.20
2019-02-12T13:02:52.696Z,9.20
2019-02-12T13:05:18.844Z,9.20
2019-02-12T13:07:45.056Z,9.20
2019-02-12T13:10:14.404Z,9.20
2019-02-12T13:12:40.562Z,9.30
2019-02-12T13:15:09.226Z,9.30
2019-02-12T13:17:50.560Z,9.40
2019-02-12T13:20:18.436Z,9.50
2019-02-12T13:23:03.071Z,9.50
2019-02-12T13:25:31.832Z,9.50
2019-02-12T13:27:58.195Z,9.30
2019-02-12T13:30:24.650Z,9.20
2019-02-12T13:32:53.504Z,9.10
2019-02-12T13:35:19.779Z,9.10
2019-02-12T13:37:46.028Z,9.20
2019-02-12T13:40:12.491Z,9.40
2019-02-12T13:42:38.777Z,9.50
2019-02-12T13:45:12.870Z,9.60
2019-02-12T13:47:39.137Z,9.60
2019-02-12T13:50:24.298Z,9.60
2019-02-12T13:52:52.975Z,9.50
2019-02-12T13:55:19.140Z,9.30
2019-02-12T13:57:45.313Z,9.30
2019-02-12T14:00:13.436Z,9.30
2019-02-12T14:02:54.940Z,9.40
2019-02-12T14:05:22.224Z,9.50
2019-02-12T14:07:48.683Z,9.70
2019-02-12T14:10:15.014Z,9.70
2019-02-12T14:12:41.172Z,9.60
2019-02-12T14:15:10.655Z,9.50
2019-02-12T14:17:56.140Z,9.40
2019-02-12T14:20:22.576Z,9.30
2019-02-12T14:22:48.775Z,9.20
2019-02-12T14:25:15.018Z,9.10
2019-02-12T14:27:44.009Z,9.10
2019-02-12T14:30:18.096Z,9.10
2019-02-12T14:32:44.364Z,9.10
2019-02-12T14:35:11.136Z,9.20
2019-02-12T14:37:55.983Z,9.30
2019-02-12T14:40:22.185Z,9.40
2019-02-12T14:42:48.582Z,9.40
2019-02-12T14:45:18.163Z,9.50
2019-02-12T14:47:44.416Z,9.60
2019-02-12T14:50:12.242Z,9.80
2019-02-12T14:52:57.023Z,9.90
2019-02-12T14:55:23.273Z,9.80
2019-02-12T14:57:49.462Z,9.70
2019-02-12T15:00:16.848Z,9.70
2019-02-12T15:02:46.014Z,9.60
2019-02-12T15:05:30.644Z,9.50
2019-02-12T15:07:56.828Z,9.50
2019-02-12T15:10:23.129Z,9.60
2019-02-12T15:12:49.440Z,9.70
2019-02-12T15:15:16.731Z,9.80
2019-02-12T15:17:43.292Z,9.70
2019-02-12T15:20:28.317Z,9.50
2019-02-12T15:22:57.051Z,9.40
2019-02-12T15:25:23.223Z,9.40
2019-02-12T15:27:49.412Z,9.40
2019-02-12T15:30:16.773Z,9.40
2019-02-12T15:32:45.999Z,9.30
2019-02-12T15:35:12.436Z,9.30
2019-02-12T15:37:38.597Z,9.20
2019-02-12T15:40:08.172Z,9.10
2019-02-12T15:42:52.557Z,9.00
2019-02-12T15:45:20.142Z,8.90
2019-02-12T15:47:46.365Z,8.90
2019-02-12T15:50:12.531Z,8.80
2019-02-12T15:52:38.706Z,8.80
2019-02-12T15:55:08.035Z,8.80
2019-02-12T15:57:34.228Z,8.80
2019-02-12T16:00:00.501Z,8.70
2019-02-12T16:02:26.679Z,8.60
2019-02-12T16:04:52.846Z,8.60
2019-02-12T16:07:20.412Z,8.50
2019-02-12T16:09:47.116Z,8.40
2019-02-12T16:12:13.275Z,8.30
2019-02-12T16:14:40.111Z,8.30
2019-02-12T16:17:07.764Z,8.20
2019-02-12T16:19:33.944Z,8.10
2019-02-12T16:22:00.299Z,8.10
2019-02-12T16:24:26.486Z,8.00
2019-02-12T16:26:52.643Z,8.00
2019-02-12T16:29:18.839Z,7.90
2019-02-12T16:31:44.992Z,7.90
2019-02-12T16:34:11.168Z,7.90
2019-02-12T16:36:37.507Z,7.90
2019-02-12T16:39:04.644Z,8.00
2019-02-12T16:41:49.176Z,7.90
2019-02-12T16:44:15.372Z,7.90
2019-02-12T16:46:41.658Z,7.80
2019-02-12T16:49:08.025Z,7.80
2019-02-12T16:51:36.855Z,7.70
2019-02-12T16:54:03.203Z,7.70
2019-02-12T16:56:29.421Z,7.70
2019-02-12T16:59:14.368Z,7.70
2019-02-12T17:01:40.545Z,7.60
2019-02-12T17:04:06.734Z,7.60
2019-02-12T17:06:32.910Z,7.60
2019-02-12T17:09:08.270Z,7.60
2019-02-12T17:11:34.448Z,7.70
2019-02-12T17:14:00.659Z,7.60
2019-02-12T17:16:26.903Z,7.60
2019-02-12T17:18:53.081Z,7.60
2019-02-12T17:21:19.297Z,7.50
2019-02-12T17:23:45.497Z,7.50
2019-02-12T17:26:16.439Z,7.50
2019-02-12T17:28:39.944Z,7.60
2019-02-12T17:31:08.795Z,7.50
2019-02-12T17:33:37.507Z,7.50
2019-02-12T17:36:03.829Z,7.40
2019-02-12T17:38:29.999Z,7.40
2019-02-12T17:40:56.256Z,7.40
2019-02-12T17:43:22.417Z,7.40
2019-02-12T17:45:49.467Z,7.30
2019-02-12T17:48:15.619Z,7.30
2019-02-12T17:50:41.841Z,7.20
2019-02-12T17:53:07.998Z,7.20
2019-02-12T17:55:34.173Z,7.20
2019-02-12T17:58:00.336Z,7.20
2019-02-12T18:00:28.406Z,7.10
2019-02-12T18:02:54.578Z,7.10
2019-02-12T18:05:20.791Z,7.10
2019-02-12T18:07:46.955Z,7.10
2019-02-12T18:10:13.283Z,7.10
2019-02-12T18:12:42.160Z,7.10
2019-02-12T18:15:11.739Z,7.00
2019-02-12T18:17:40.436Z,7.00
2019-02-12T18:20:09.103Z,7.00
2019-02-12T18:22:47.584Z,6.90
2019-02-12T18:25:13.801Z,6.90
2019-02-12T18:27:58.282Z,6.90
2019-02-12T18:30:24.470Z,6.90
2019-02-12T18:32:50.896Z,6.90
2019-02-12T18:35:17.125Z,6.80
2019-02-12T18:37:43.509Z,6.80
2019-02-12T18:40:28.199Z,6.70
2019-02-12T18:42:54.368Z,6.70
2019-02-12T18:45:21.671Z,6.70
2019-02-12T18:47:47.904Z,6.60
2019-02-12T18:50:14.132Z,6.60
2019-02-12T18:52:40.309Z,6.60
2019-02-12T18:55:09.680Z,6.60
2019-02-12T18:57:54.826Z,6.60
2019-02-12T19:00:39.506Z,6.60
2019-02-12T19:03:05.768Z,6.60
2019-02-12T19:05:31.950Z,6.50
2019-02-12T19:07:58.179Z,6.50
2019-02-12T19:10:24.359Z,6.50
2019-02-12T19:12:50.559Z,6.40
2019-02-12T19:15:18.225Z,6.50
2019-02-12T19:17:50.887Z,6.40
2019-02-12T19:20:20.008Z,6.40
2019-02-12T19:22:46.205Z,6.50
2019-02-12T19:25:12.399Z,6.50
2019-02-12T19:27:41.416Z,6.40
2019-02-12T19:30:16.223Z,6.40
2019-02-12T19:32:42.624Z,6.40
2019-02-12T19:35:09.712Z,6.40
2019-02-12T19:37:36.025Z,6.40
2019-02-12T19:40:03.688Z,6.40
2019-02-12T19:42:32.509Z,6.40
2019-02-12T19:45:17.456Z,6.30
2019-02-12T19:47:44.007Z,6.30
2019-02-12T19:50:10.408Z,6.30
2019-02-12T19:52:39.430Z,6.30
2019-02-12T19:55:07.269Z,6.30
2019-02-12T19:57:33.503Z,6.20
2019-02-12T19:59:59.672Z,6.20
2019-02-12T20:02:25.840Z,6.20
2019-02-12T20:04:52.116Z,6.10
2019-02-12T20:07:27.029Z,6.10
2019-02-12T20:09:53.250Z,6.10
2019-02-12T20:12:19.494Z,6.10
2019-02-12T20:14:45.753Z,6.10
2019-02-12T20:17:12.044Z,6.10
2019-02-12T20:19:38.229Z,6.10
2019-02-12T20:22:04.452Z,6.10
2019-02-12T20:24:30.724Z,6.10
2019-02-12T20:27:15.910Z,6.10
2019-02-12T20:29:45.014Z,6.10
2019-02-12T20:32:29.956Z,6.10
2019-02-12T20:34:56.107Z,6.10
2019-02-12T20:37:22.276Z,6.10
2019-02-12T20:39:48.568Z,6.10
2019-02-12T20:42:14.939Z,6.10
2019-02-12T20:44:44.066Z,6.20
2019-02-12T20:47:10.261Z,6.20
2019-02-12T20:49:36.458Z,6.20
2019-02-12T20:52:21.397Z,6.20
2019-02-12T20:55:07.355Z,6.30
2019-02-12T20:57:33.585Z,6.30
2019-02-12T20:59:59.841Z,6.30
2019-02-12T21:02:26.004Z,6.30
2019-02-12T21:04:52.621Z,6.30
2019-02-12T21:07:37.860Z,6.40
2019-02-12T21:10:10.105Z,6.40
2019-02-12T21:12:38.800Z,6.40
2019-02-12T21:15:10.929Z,6.50
2019-02-12T21:17:37.204Z,6.40
2019-02-12T21:20:06.573Z,6.40
2019-02-12T21:22:32.733Z,6.40
2019-02-12T21:24:59.187Z,6.50
2019-02-12T21:27:28.167Z,6.50
2019-02-12T21:29:57.140Z,6.40
2019-02-12T21:32:23.934Z,6.40
2019-02-12T21:34:50.289Z,6.40
2019-02-12T21:37:16.458Z,6.40
2019-02-12T21:39:42.640Z,6.40
2019-02-12T21:42:08.957Z,6.30
2019-02-12T21:44:35.314Z,6.30
2019-02-12T21:47:01.568Z,6.30
2019-02-12T21:49:27.800Z,6.30
2019-02-12T21:51:54.022Z,6.30
2019-02-12T21:54:20.280Z,6.30
2019-02-12T21:56:49.146Z,6.20
2019-02-12T21:59:15.347Z,6.20
2019-02-12T22:01:41.525Z,6.20
2019-02-12T22:04:07.756Z,6.20
2019-02-12T22:06:34.156Z,6.20
2019-02-12T22:09:18.960Z,6.10
2019-02-12T22:11:45.310Z,6.10
2019-02-12T22:14:11.457Z,6.10
2019-02-12T22:16:37.629Z,6.10
2019-02-12T22:19:03.824Z,6.10
2019-02-12T22:21:30.100Z,6.10
2019-02-12T22:23:56.249Z,6.10
2019-02-12T22:26:22.426Z,6.10
2019-02-12T22:28:48.686Z,6.10
2019-02-12T22:31:14.958Z,6.10
2019-02-12T22:33:41.122Z,6.10
2019-02-12T22:36:07.296Z,6.10
2019-02-12T22:38:33.558Z,6.00
2019-02-12T22:40:59.816Z,6.00
2019-02-12T22:43:25.967Z,6.00
2019-02-12T22:45:52.172Z,6.00
2019-02-12T22:48:18.328Z,6.00
2019-02-12T22:50:44.520Z,6.00
2019-02-12T22:53:10.673Z,6.00
2019-02-12T22:55:36.895Z,6.10
2019-02-12T22:58:05.611Z,6.00
2019-02-12T23:00:47.998Z,6.10
2019-02-12T23:03:14.245Z,6.10
2019-02-12T23:05:43.128Z,6.20
2019-02-12T23:08:09.382Z,6.20
2019-02-12T23:10:35.556Z,6.20
2019-02-12T23:13:01.725Z,6.20
2019-02-12T23:15:27.898Z,6.20
2019-02-12T23:17:54.136Z,6.10
2019-02-12T23:20:20.429Z,6.10
2019-02-12T23:22:46.717Z,6.10
2019-02-12T23:25:12.909Z,6.10
2019-02-12T23:27:39.131Z,6.10
2019-02-12T23:30:07.788Z,6.10
2019-02-12T23:32:34.068Z,6.10
2019-02-12T23:35:00.233Z,6.10
2019-02-12T23:37:26.515Z,6.10
2019-02-12T23:39:52.676Z,6.10
2019-02-12T23:42:21.987Z,6.10
2019-02-12T23:44:48.143Z,6.10
2019-02-12T23:47:14.361Z,6.20
2019-02-12T23:49:40.620Z,6.20
2019-02-12T23:52:06.784Z,6.20
2019-02-12T23:54:32.973Z,6.20
2019-02-12T23:56:59.127Z,6.20
2019-02-12T23:59:25.275Z,6.20
